Time;durP1;ratioP1;P1;durP2;ratioP2;P2;SDS_P1;SDS_P2;PMS_P1;PMS_P2;Temp;Humidity;BMP_temperature;BMP_pressure;BME280_temperature;BME280_humidity;BME280_pressure;Samples;Min_cycle;Max_cycle;Signal;HPM_P1;HPM_P2
2020/12/31 00:00:28;;;;;;;13.35;7.40;;;8.70;71.80;;;;;;5006391;28;20034;-73
2020/12/31 00:02:54;;;;;;;13.00;7.40;;;8.70;72.10;;;;;;5010074;28;20034;-73
2020/12/31 00:05:20;;;;;;;13.10;6.60;;;8.70;72.10;;;;;;5008626;28;20064;-73
2020/12/31 00:07:45;;;;;;;13.98;7.30;;;8.70;72.00;;;;;;5009561;28;20033;-73
2020/12/31 00:10:11;;;;;;;11.25;7.35;;;8.70;72.00;;;;;;5009985;28;20033;-73
2020/12/31 00:12:37;;;;;;;16.02;7.68;;;8.70;71.70;;;;;;5015237;28;20041;-74
2020/12/31 00:15:03;;;;;;;10.57;6.10;;;8.60;71.70;;;;;;5010062;28;20369;-72
2020/12/31 00:17:29;;;;;;;11.15;7.03;;;8.70;71.80;;;;;;4995911;28;20349;-73
2020/12/31 00:19:55;;;;;;;11.30;6.75;;;8.60;71.80;;;;;;5010738;28;20125;-73
2020/12/31 00:22:20;;;;;;;13.50;7.43;;;8.70;71.90;;;;;;4992313;28;20038;-73
2020/12/31 00:24:46;;;;;;;11.32;6.95;;;8.60;72.00;;;;;;4993723;28;20034;-72
2020/12/31 00:27:11;;;;;;;10.95;7.25;;;8.60;72.00;;;;;;5010919;28;20046;-72
2020/12/31 00:29:37;;;;;;;12.27;6.13;;;8.70;72.10;;;;;;4993804;28;20385;-73
2020/12/31 00:32:03;;;;;;;13.43;6.97;;;8.70;72.10;;;;;;5010176;28;20030;-72
2020/12/31 00:34:29;;;;;;;12.52;6.63;;;8.70;71.90;;;;;;4993355;28;20110;-73
2020/12/31 00:36:54;;;;;;;13.30;6.95;;;8.70;71.80;;;;;;4991455;28;20062;-72
2020/12/31 00:39:20;;;;;;;9.88;5.72;;;8.70;71.80;;;;;;5010139;28;20057;-73
2020/12/31 00:41:46;;;;;;;12.63;6.97;;;8.70;71.80;;;;;;5010044;28;20057;-73
2020/12/31 00:44:12;;;;;;;11.65;6.05;;;8.80;71.80;;;;;;5009600;28;20038;-72
2020/12/31 00:46:38;;;;;;;11.00;6.20;;;8.70;71.90;;;;;;5009256;28;20179;-73
2020/12/31 00:49:04;;;;;;;17.05;8.50;;;8.80;71.90;;;;;;5010470;28;20065;-72
2020/12/31 00:51:30;;;;;;;12.00;6.60;;;8.80;71.90;;;;;;5001655;28;20494;-72
2020/12/31 00:53:55;;;;;;;9.40;5.88;;;8.80;71.90;;;;;;5010845;28;20137;-72
2020/12/31 00:56:21;;;;;;;11.27;6.95;;;8.70;71.90;;;;;;5009452;28;20045;-72
2020/12/31 00:58:47;;;;;;;10.05;5.68;;;8.80;72.00;;;;;;5011361;28;20038;-73
2020/12/31 01:01:12;;;;;;;8.77;5.13;;;8.70;72.10;;;;;;5009689;28;20477;-73
2020/12/31 01:03:38;;;;;;;9.50;5.25;;;8.70;72.10;;;;;;4977214;28;20506;-73
2020/12/31 01:06:03;;;;;;;12.43;5.70;;;8.70;72.10;;;;;;5008340;28;20037;-72
2020/12/31 01:08:29;;;;;;;8.77;5.30;;;8.60;72.20;;;;;;4996166;28;20831;-73
2020/12/31 01:10:55;;;;;;;9.52;5.40;;;8.70;72.40;;;;;;5000548;28;20075;-73
2020/12/31 01:13:20;;;;;;;8.95;5.22;;;8.60;72.30;;;;;;4993511;28;20044;-72
2020/12/31 01:15:46;;;;;;;9.48;5.93;;;8.70;72.40;;;;;;4998203;28;20447;-73
2020/12/31 01:18:12;;;;;;;9.02;4.78;;;8.70;72.30;;;;;;4992325;28;20120;-72
2020/12/31 01:20:39;;;;;;;11.80;5.30;;;8.60;72.30;;;;;;5008976;28;20534;-73
2020/12/31 01:23:05;;;;;;;10.98;5.55;;;8.60;72.30;;;;;;5010347;28;20042;-72
2020/12/31 01:25:32;;;;;;;8.13;4.60;;;8.50;72.40;;;;;;5008800;28;20059;-72
2020/12/31 01:27:57;;;;;;;9.60;5.18;;;8.40;72.70;;;;;;4992864;28;20046;-72
2020/12/31 01:30:23;;;;;;;10.70;5.43;;;8.40;72.80;;;;;;5000377;28;20120;-73
2020/12/31 01:32:48;;;;;;;10.52;5.78;;;8.40;72.90;;;;;;5000583;28;20037;-73
2020/12/31 01:35:14;;;;;;;12.10;6.68;;;8.40;72.90;;;;;;5007896;28;20040;-73
2020/12/31 01:37:40;;;;;;;9.95;5.10;;;8.50;73.00;;;;;;5010408;28;20097;-73
2020/12/31 01:40:05;;;;;;;12.05;6.45;;;8.40;73.00;;;;;;5008986;28;20034;-72
2020/12/31 01:42:31;;;;;;;9.38;5.60;;;8.50;73.00;;;;;;5010204;28;20053;-73
2020/12/31 01:44:57;;;;;;;12.07;5.90;;;8.50;73.00;;;;;;4997626;28;20042;-72
2020/12/31 01:47:22;;;;;;;11.95;5.97;;;8.40;73.00;;;;;;4987179;28;20026;-73
2020/12/31 01:49:50;;;;;;;7.80;4.70;;;8.50;73.10;;;;;;4972986;28;20042;-73
2020/12/31 01:52:17;;;;;;;9.30;5.47;;;8.50;73.00;;;;;;5002293;28;20428;-72
2020/12/31 01:54:47;;;;;;;11.23;5.07;;;8.50;73.00;;;;;;4999025;28;20099;-72
2020/12/31 01:57:13;;;;;;;9.10;5.45;;;8.40;73.00;;;;;;4994430;28;20037;-72
2020/12/31 01:59:39;;;;;;;10.52;5.35;;;8.40;73.10;;;;;;5009239;28;20486;-73
2020/12/31 02:02:07;;;;;;;10.27;5.38;;;8.30;73.30;;;;;;5009156;28;20069;-73
2020/12/31 02:04:37;;;;;;;8.75;5.07;;;8.30;73.40;;;;;;5002979;28;20159;-73
2020/12/31 02:07:03;;;;;;;8.65;4.97;;;8.30;73.40;;;;;;4991093;28;20460;-72
2020/12/31 02:09:30;;;;;;;10.95;5.25;;;8.40;73.40;;;;;;4994192;28;20034;-73
2020/12/31 02:11:56;;;;;;;9.77;5.07;;;8.40;73.40;;;;;;4997519;28;20117;-73
2020/12/31 02:14:22;;;;;;;9.15;5.75;;;8.40;73.10;;;;;;5002697;28;20109;-73
2020/12/31 02:16:48;;;;;;;10.65;6.10;;;8.40;73.10;;;;;;4992150;28;20583;-73
2020/12/31 02:19:16;;;;;;;12.35;7.60;;;8.40;73.10;;;;;;4992648;28;20033;-73
2020/12/31 02:21:49;;;;;;;14.05;8.75;;;8.40;73.10;;;;;;5008360;28;20563;-73
2020/12/31 02:24:15;;;;;;;13.55;8.52;;;8.30;73.20;;;;;;5011040;28;20498;-72
2020/12/31 02:26:43;;;;;;;14.60;8.32;;;8.30;73.40;;;;;;5013034;28;20121;-73
2020/12/31 02:29:09;;;;;;;15.32;9.65;;;8.30;73.70;;;;;;5012882;28;20434;-72
2020/12/31 02:31:36;;;;;;;15.60;10.20;;;8.20;73.70;;;;;;5008116;28;20057;-73
2020/12/31 02:34:03;;;;;;;15.45;9.05;;;8.20;73.90;;;;;;4998112;28;20030;-73
2020/12/31 02:36:32;;;;;;;15.55;9.40;;;8.20;74.10;;;;;;5009454;28;20099;-73
2020/12/31 02:39:09;;;;;;;14.95;9.38;;;8.10;74.30;;;;;;4997704;28;20041;-73
2020/12/31 02:41:36;;;;;;;14.43;9.80;;;8.10;74.30;;;;;;5007333;28;20030;-73
2020/12/31 02:44:03;;;;;;;13.13;8.68;;;8.20;74.40;;;;;;5010015;28;20380;-73
2020/12/31 02:46:29;;;;;;;14.40;8.43;;;8.20;74.40;;;;;;5012007;28;20049;-73
2020/12/31 02:48:54;;;;;;;14.52;8.43;;;8.10;74.30;;;;;;4995598;28;20038;-73
2020/12/31 02:51:20;;;;;;;12.13;7.95;;;8.20;74.60;;;;;;5011408;28;20034;-73
2020/12/31 02:53:47;;;;;;;13.38;8.38;;;8.20;74.50;;;;;;5008701;28;20050;-73
2020/12/31 02:56:20;;;;;;;11.40;7.00;;;8.20;74.60;;;;;;5007502;28;20049;-73
2020/12/31 02:58:47;;;;;;;12.95;7.05;;;8.20;74.50;;;;;;4989295;28;20034;-73
2020/12/31 03:01:13;;;;;;;11.48;7.10;;;8.30;74.50;;;;;;4989506;28;20388;-73
2020/12/31 03:03:39;;;;;;;11.38;6.55;;;8.30;74.40;;;;;;5013098;28;20498;-73
2020/12/31 03:06:06;;;;;;;12.07;7.05;;;8.30;74.50;;;;;;5001926;28;20052;-73
2020/12/31 03:08:32;;;;;;;11.15;6.63;;;8.30;74.40;;;;;;5012583;28;20404;-73
2020/12/31 03:10:58;;;;;;;11.75;7.32;;;8.30;74.30;;;;;;5012568;28;20077;-73
2020/12/31 03:13:25;;;;;;;10.88;6.25;;;8.40;74.20;;;;;;5005433;28;20484;-73
2020/12/31 03:15:52;;;;;;;11.68;7.40;;;8.40;74.10;;;;;;4993578;28;20395;-73
2020/12/31 03:18:18;;;;;;;11.00;6.60;;;8.40;74.00;;;;;;5011886;28;20563;-72
2020/12/31 03:20:44;;;;;;;10.88;6.72;;;8.40;74.00;;;;;;5011185;28;20113;-73
2020/12/31 03:23:19;;;;;;;10.90;6.70;;;8.40;73.90;;;;;;5002357;28;20038;-72
2020/12/31 03:25:46;;;;;;;11.45;6.80;;;8.50;73.90;;;;;;5012028;28;20041;-73
2020/12/31 03:28:13;;;;;;;10.65;7.07;;;8.40;73.90;;;;;;5012461;28;20037;-72
2020/12/31 03:30:39;;;;;;;13.18;7.13;;;8.40;74.00;;;;;;5012141;28;20033;-73
2020/12/31 03:33:05;;;;;;;10.55;6.65;;;8.40;74.00;;;;;;4996228;28;20038;-73
2020/12/31 03:35:33;;;;;;;10.75;6.22;;;8.40;74.00;;;;;;5002118;28;20145;-73
2020/12/31 03:37:59;;;;;;;11.13;6.88;;;8.40;74.00;;;;;;4999837;28;20512;-72
2020/12/31 03:40:25;;;;;;;10.70;6.47;;;8.40;74.00;;;;;;5003690;28;20058;-73
2020/12/31 03:42:50;;;;;;;10.68;6.55;;;8.40;73.90;;;;;;5006928;28;20061;-73
2020/12/31 03:45:16;;;;;;;11.98;6.72;;;8.40;73.80;;;;;;5001806;28;20088;-72
2020/12/31 03:47:42;;;;;;;10.95;6.20;;;8.40;73.80;;;;;;5011553;28;20048;-73
2020/12/31 03:50:08;;;;;;;10.35;6.60;;;8.40;73.80;;;;;;5003441;28;20409;-73
2020/12/31 03:52:33;;;;;;;11.15;6.38;;;8.50;73.70;;;;;;5012108;28;20030;-73
2020/12/31 03:54:59;;;;;;;8.43;5.32;;;8.50;73.60;;;;;;5010990;28;20066;-73
2020/12/31 03:57:25;;;;;;;11.13;5.95;;;8.50;73.60;;;;;;5012205;28;20042;-73
2020/12/31 03:59:50;;;;;;;9.35;5.85;;;8.50;73.50;;;;;;5011122;28;20026;-73
2020/12/31 04:02:16;;;;;;;9.40;6.28;;;8.40;73.50;;;;;;5011181;28;20480;-72
2020/12/31 04:04:42;;;;;;;9.43;5.70;;;8.40;73.50;;;;;;5011530;28;20114;-73
2020/12/31 04:07:07;;;;;;;9.02;5.38;;;8.50;73.50;;;;;;4994694;28;20103;-73
2020/12/31 04:09:33;;;;;;;9.35;5.53;;;8.50;73.50;;;;;;4994573;28;20935;-73
2020/12/31 04:11:59;;;;;;;9.48;5.85;;;8.50;73.50;;;;;;4984489;28;20022;-73
2020/12/31 04:14:25;;;;;;;10.63;6.90;;;8.50;73.50;;;;;;5010535;28;20073;-73
2020/12/31 04:16:50;;;;;;;10.00;6.15;;;8.50;73.40;;;;;;5011386;28;20052;-73
2020/12/31 04:19:16;;;;;;;10.40;5.85;;;8.50;73.30;;;;;;5010664;28;20034;-73
2020/12/31 04:21:42;;;;;;;8.43;5.05;;;8.50;73.30;;;;;;5010258;28;20077;-73
2020/12/31 04:24:07;;;;;;;9.07;5.30;;;8.50;73.20;;;;;;5010026;28;20034;-73
2020/12/31 04:26:33;;;;;;;9.30;5.60;;;8.50;73.20;;;;;;5002042;28;20026;-73
2020/12/31 04:28:59;;;;;;;8.25;5.35;;;8.50;73.30;;;;;;4993009;28;20038;-73
2020/12/31 04:31:24;;;;;;;10.07;6.13;;;8.50;73.30;;;;;;4996637;28;20026;-72
2020/12/31 04:33:50;;;;;;;9.27;5.18;;;8.50;73.30;;;;;;5011315;28;20034;-73
2020/12/31 04:36:17;;;;;;;11.13;5.43;;;8.50;73.20;;;;;;4996109;28;20136;-73
2020/12/31 04:38:42;;;;;;;10.85;4.80;;;8.40;73.20;;;;;;5010947;28;20036;-73
2020/12/31 04:41:08;;;;;;;8.55;5.18;;;8.40;73.30;;;;;;4993573;28;20029;-72
2020/12/31 04:43:35;;;;;;;10.57;4.78;;;8.40;73.30;;;;;;4998175;28;20113;-73
2020/12/31 04:46:08;;;;;;;8.48;5.13;;;8.50;73.40;;;;;;5010707;28;20038;-73
2020/12/31 04:48:37;;;;;;;;;;;8.40;73.90;;;;;;5006584;28;20062;-73
2020/12/31 04:51:06;;;;;;;8.95;5.60;;;8.50;73.10;;;;;;5002322;28;19910;-73
2020/12/31 04:53:32;;;;;;;9.05;5.30;;;8.50;73.20;;;;;;5001449;28;20121;-73
2020/12/31 04:56:01;;;;;;;10.50;5.80;;;8.50;73.30;;;;;;5010950;28;20495;-73
2020/12/31 04:58:27;;;;;;;8.35;4.75;;;8.50;73.30;;;;;;5009251;28;20498;-73
2020/12/31 05:00:52;;;;;;;10.07;5.80;;;8.50;73.00;;;;;;4989963;28;20106;-73
2020/12/31 05:03:18;;;;;;;9.10;5.55;;;8.40;73.20;;;;;;4989932;28;20050;-72
2020/12/31 05:05:45;;;;;;;8.45;4.57;;;8.40;73.30;;;;;;5009132;28;20121;-73
2020/12/31 05:08:11;;;;;;;9.82;5.80;;;8.40;73.30;;;;;;4999785;28;20050;-72
2020/12/31 05:10:37;;;;;;;7.80;5.03;;;8.40;73.30;;;;;;5004902;28;20038;-72
2020/12/31 05:13:05;;;;;;;10.43;5.13;;;8.40;73.30;;;;;;5010218;28;20060;-73
2020/12/31 05:15:41;;;;;;;9.60;5.30;;;8.40;73.20;;;;;;5010073;28;20069;-72
2020/12/31 05:18:31;;;;;;;9.02;5.15;;;8.30;73.00;;;;;;5010491;28;20117;-73
2020/12/31 05:21:00;;;;;;;8.45;5.15;;;8.20;73.10;;;;;;4990174;28;20081;-73
2020/12/31 05:23:27;;;;;;;9.32;5.72;;;8.20;73.50;;;;;;5007591;28;20029;-72
2020/12/31 05:25:54;;;;;;;9.15;5.35;;;8.20;73.50;;;;;;4995418;28;20050;-73
2020/12/31 05:28:41;;;;;;;7.80;4.75;;;8.20;73.60;;;;;;5006259;28;20033;-72
2020/12/31 05:31:12;;;;;;;11.07;6.20;;;8.20;73.50;;;;;;5005982;28;20045;-72
2020/12/31 05:33:39;;;;;;;9.27;4.93;;;8.20;73.40;;;;;;5007489;28;20036;-72
2020/12/31 05:36:26;;;;;;;9.45;4.75;;;8.20;73.30;;;;;;4992983;28;20444;-72
2020/12/31 05:38:57;;;;;;;8.05;4.53;;;8.10;73.40;;;;;;5010738;28;20087;-73
2020/12/31 05:41:31;;;;;;;9.38;5.03;;;8.10;73.40;;;;;;5009469;28;20096;-72
2020/12/31 05:43:58;;;;;;;;;;;8.10;74.00;;;;;;4980589;28;20408;-73
2020/12/31 05:46:25;;;;;;;8.40;4.82;;;8.20;73.10;;;;;;5008787;28;20275;-72
2020/12/31 05:48:58;;;;;;;9.30;4.90;;;8.20;73.00;;;;;;4994455;28;20047;-73
2020/12/31 05:51:42;;;;;;;7.63;4.63;;;8.10;73.30;;;;;;5002268;28;20025;-72
2020/12/31 05:54:09;;;;;;;8.75;4.88;;;8.00;73.40;;;;;;5009560;28;20387;-73
2020/12/31 05:56:36;;;;;;;10.35;4.40;;;8.10;73.50;;;;;;5010131;28;20054;-73
2020/12/31 05:59:07;;;;;;;8.07;4.10;;;8.10;73.60;;;;;;5012521;28;20064;-73
2020/12/31 06:01:36;;;;;;;7.60;4.10;;;8.10;73.40;;;;;;5013439;28;20450;-72
2020/12/31 06:04:18;;;;;;;7.10;3.80;;;8.10;73.50;;;;;;4996569;28;20022;-73
2020/12/31 06:06:49;;;;;;;6.80;3.97;;;8.10;73.20;;;;;;4998949;28;20570;-73
2020/12/31 06:09:29;;;;;;;9.00;4.18;;;8.10;73.20;;;;;;5013536;28;20506;-73
2020/12/31 06:12:19;;;;;;;7.28;3.70;;;8.10;73.30;;;;;;5008206;28;20136;-73
2020/12/31 06:14:49;;;;;;;7.63;4.30;;;8.10;73.10;;;;;;5007998;28;20025;-72
2020/12/31 06:17:22;;;;;;;9.38;5.32;;;7.90;73.10;;;;;;5013666;28;20037;-73
2020/12/31 06:19:57;;;;;;;7.18;3.88;;;7.90;73.50;;;;;;5008901;28;20034;-73
2020/12/31 06:22:34;;;;;;;9.77;4.80;;;7.90;73.30;;;;;;4995270;28;20026;-73
2020/12/31 06:25:04;;;;;;;9.90;4.72;;;7.90;73.40;;;;;;5009470;28;20026;-72
2020/12/31 06:27:39;;;;;;;7.35;3.95;;;7.90;73.60;;;;;;5012896;28;20459;-72
2020/12/31 06:30:05;;;;;;;8.15;4.00;;;8.00;73.60;;;;;;5009100;28;20045;-72
2020/12/31 06:32:35;;;;;;;7.50;4.00;;;8.00;73.10;;;;;;5013047;28;20113;-73
2020/12/31 06:35:10;;;;;;;7.93;4.05;;;7.90;73.10;;;;;;5012895;28;20017;-73
2020/12/31 06:37:37;;;;;;;8.10;3.95;;;7.90;73.10;;;;;;4998122;28;20412;-73
2020/12/31 06:40:22;;;;;;;6.50;3.35;;;7.90;72.70;;;;;;4991811;28;20034;-73
2020/12/31 06:43:03;;;;;;;7.15;3.95;;;7.90;72.90;;;;;;5007556;28;20113;-73
2020/12/31 06:45:48;;;;;;;8.68;3.88;;;7.90;73.00;;;;;;5012287;28;20045;-72
2020/12/31 06:48:26;;;;;;;9.52;4.53;;;7.90;73.00;;;;;;5008945;28;20030;-74
2020/12/31 06:51:01;;;;;;;8.65;3.55;;;7.90;73.10;;;;;;5012425;28;20030;-73
2020/12/31 06:53:34;;;;;;;8.07;3.80;;;8.00;72.90;;;;;;5011807;28;20026;-72
2020/12/31 06:56:02;;;;;;;8.90;5.07;;;8.00;73.00;;;;;;5009242;28;20093;-73
2020/12/31 06:58:29;;;;;;;8.70;4.30;;;8.00;72.80;;;;;;4994958;28;20623;-72
2020/12/31 07:00:55;;;;;;;8.52;4.60;;;8.10;72.80;;;;;;5007411;28;20093;-73
2020/12/31 07:03:39;;;;;;;9.70;4.40;;;8.10;72.70;;;;;;5013533;28;20108;-72
2020/12/31 07:06:34;;;;;;;10.02;4.55;;;8.10;72.60;;;;;;5009898;28;20380;-73
2020/12/31 07:09:23;;;;;;;8.60;4.18;;;8.10;72.50;;;;;;4993263;28;20072;-72
2020/12/31 07:11:57;;;;;;;12.68;6.75;;;8.20;72.40;;;;;;5005303;28;20041;-73
2020/12/31 07:14:25;;;;;;;11.85;5.93;;;8.20;72.40;;;;;;5007777;28;20097;-73
2020/12/31 07:17:01;;;;;;;9.00;4.90;;;8.20;72.40;;;;;;5011515;28;20041;-73
2020/12/31 07:19:45;;;;;;;8.55;4.78;;;8.20;72.40;;;;;;5012841;28;20095;-73
2020/12/31 07:22:11;;;;;;;9.15;5.22;;;8.10;72.10;;;;;;5007170;28;20037;-73
2020/12/31 07:24:51;;;;;;;8.70;4.88;;;8.00;72.00;;;;;;5009082;28;20026;-72
2020/12/31 07:27:21;;;;;;;8.65;4.60;;;8.00;72.40;;;;;;5009375;28;20088;-73
2020/12/31 07:30:01;;;;;;;8.73;4.20;;;8.00;72.50;;;;;;5010906;28;20034;-72
2020/12/31 07:33:09;;;;;;;8.05;3.95;;;7.90;72.40;;;;;;5011439;28;20026;-73
2020/12/31 07:35:37;;;;;;;6.78;3.90;;;7.80;72.50;;;;;;4952336;28;20061;-72
2020/12/31 07:38:29;;;;;;;10.30;4.97;;;7.80;72.60;;;;;;5005648;28;20105;-72
2020/12/31 07:40:55;;;;;;;7.32;3.85;;;7.80;72.80;;;;;;5001728;28;20034;-72
2020/12/31 07:43:26;;;;;;;8.80;3.75;;;7.70;72.90;;;;;;5010117;28;20041;-73
2020/12/31 07:45:52;;;;;;;9.75;3.53;;;7.60;72.90;;;;;;5009297;28;20045;-72
2020/12/31 07:48:19;;;;;;;5.90;2.70;;;7.60;73.30;;;;;;5009250;28;20034;-73
2020/12/31 07:50:45;;;;;;;5.85;3.17;;;7.60;73.30;;;;;;5011047;28;20129;-72
2020/12/31 07:53:12;;;;;;;5.50;2.50;;;7.60;73.50;;;;;;4995257;28;20113;-72
2020/12/31 07:55:46;;;;;;;6.20;2.93;;;7.60;73.40;;;;;;5011325;28;20045;-71
2020/12/31 07:58:12;;;;;;;5.60;2.80;;;7.50;73.40;;;;;;5012105;28;20029;-72
2020/12/31 08:00:38;;;;;;;5.75;2.88;;;7.50;73.40;;;;;;5004800;28;20052;-72
2020/12/31 08:03:08;;;;;;;6.55;2.83;;;7.50;73.50;;;;;;5011105;28;20034;-73
2020/12/31 08:05:34;;;;;;;6.32;3.00;;;7.60;73.50;;;;;;5008557;28;20037;-72
2020/12/31 08:07:59;;;;;;;4.88;2.40;;;7.50;73.30;;;;;;5009715;28;20365;-73
2020/12/31 08:10:25;;;;;;;6.57;3.10;;;7.60;73.10;;;;;;5000254;28;20484;-72
2020/12/31 08:12:55;;;;;;;6.97;2.50;;;7.50;73.10;;;;;;5010406;28;20030;-72
2020/12/31 08:15:22;;;;;;;8.57;3.10;;;7.50;73.10;;;;;;4992672;28;20393;-73
2020/12/31 08:17:56;;;;;;;5.38;2.65;;;7.60;73.00;;;;;;5011887;28;20136;-73
2020/12/31 08:20:23;;;;;;;;;;;7.50;73.50;;;;;;5011838;28;20030;-72
2020/12/31 08:23:00;;;;;;;5.23;2.80;;;7.60;72.80;;;;;;5008620;28;19932;-73
2020/12/31 08:25:31;;;;;;;5.70;3.17;;;7.60;72.90;;;;;;5010456;28;20030;-73
2020/12/31 08:27:57;;;;;;;11.13;3.33;;;7.60;72.80;;;;;;5010720;28;20393;-73
2020/12/31 08:30:24;;;;;;;6.47;2.93;;;7.60;72.90;;;;;;5010269;28;20879;-73
2020/12/31 08:32:51;;;;;;;7.90;4.23;;;7.70;73.00;;;;;;5015883;28;20040;-72
2020/12/31 08:35:24;;;;;;;6.88;3.85;;;7.70;72.80;;;;;;5008708;28;20154;-73
2020/12/31 08:38:08;;;;;;;5.97;2.50;;;7.60;72.70;;;;;;5010427;28;20511;-73
2020/12/31 08:40:45;;;;;;;6.15;2.95;;;7.60;72.80;;;;;;5003285;28;20022;-72
2020/12/31 08:43:18;;;;;;;6.78;3.13;;;7.60;72.90;;;;;;5011380;28;20022;-73
2020/12/31 08:45:44;;;;;;;8.03;3.03;;;7.70;72.90;;;;;;5000838;28;20038;-73
2020/12/31 08:48:10;;;;;;;6.07;2.85;;;7.70;72.90;;;;;;5010328;28;20040;-72
2020/12/31 08:50:36;;;;;;;5.60;2.80;;;7.80;72.90;;;;;;4987929;28;20097;-71
2020/12/31 08:53:02;;;;;;;7.07;2.92;;;7.80;72.80;;;;;;4995094;28;20364;-72
2020/12/31 08:55:28;;;;;;;6.07;3.38;;;7.80;72.70;;;;;;5002150;28;20117;-72
2020/12/31 08:58:16;;;;;;;6.80;3.38;;;7.80;72.50;;;;;;4991864;28;20332;-72
2020/12/31 09:00:42;;;;;;;10.63;3.50;;;7.70;72.80;;;;;;4991478;28;20372;-72
2020/12/31 09:03:09;;;;;;;5.85;3.15;;;7.70;72.70;;;;;;5008468;28;20038;-73
2020/12/31 09:05:35;;;;;;;6.05;3.55;;;7.60;72.90;;;;;;5007053;28;20038;-73
2020/12/31 09:08:02;;;;;;;6.00;3.25;;;7.50;73.30;;;;;;5003535;28;20036;-72
2020/12/31 09:10:36;;;;;;;7.05;3.30;;;7.40;73.50;;;;;;5000102;28;20068;-72
2020/12/31 09:13:03;;;;;;;6.43;3.05;;;7.40;73.70;;;;;;5008741;28;20022;-73
2020/12/31 09:15:29;;;;;;;6.60;3.15;;;7.50;73.80;;;;;;4994365;28;20453;-73
2020/12/31 09:17:56;;;;;;;7.40;3.55;;;7.50;73.50;;;;;;5008172;28;20097;-73
2020/12/31 09:20:24;;;;;;;8.75;4.20;;;7.60;73.50;;;;;;5007185;28;20022;-73
2020/12/31 09:22:50;;;;;;;9.27;4.07;;;7.60;73.50;;;;;;4985691;28;20040;-73
2020/12/31 09:25:16;;;;;;;8.18;4.30;;;7.60;73.50;;;;;;4987046;28;20026;-73
2020/12/31 09:27:45;;;;;;;7.88;4.28;;;7.70;73.50;;;;;;5005178;28;20044;-73
2020/12/31 09:30:12;;;;;;;7.63;4.15;;;7.70;73.40;;;;;;4998748;28;20036;-73
2020/12/31 09:32:38;;;;;;;7.93;3.33;;;7.70;73.50;;;;;;5005294;28;20064;-73
2020/12/31 09:35:06;;;;;;;7.07;3.28;;;7.70;73.50;;;;;;4998054;28;20065;-72
2020/12/31 09:37:57;;;;;;;5.70;3.10;;;7.70;73.40;;;;;;5007416;28;20057;-73
2020/12/31 09:40:24;;;;;;;6.22;3.22;;;7.70;73.20;;;;;;5009002;28;20578;-73
2020/12/31 09:42:50;;;;;;;5.93;3.17;;;7.70;73.10;;;;;;5007062;28;20057;-73
2020/12/31 09:45:16;;;;;;;7.43;3.53;;;7.60;72.90;;;;;;5009060;28;20072;-73
2020/12/31 09:47:42;;;;;;;6.95;3.50;;;7.50;73.10;;;;;;5008559;28;20038;-73
2020/12/31 09:50:11;;;;;;;5.97;2.95;;;7.40;73.50;;;;;;5008018;28;20034;-73
2020/12/31 09:52:38;;;;;;;6.90;3.40;;;7.40;73.90;;;;;;4992917;28;20543;-73
2020/12/31 09:55:07;;;;;;;5.53;2.83;;;7.50;74.00;;;;;;4997095;28;20771;-73
2020/12/31 09:57:36;;;;;;;6.80;3.50;;;7.60;73.90;;;;;;4999665;28;20044;-73
2020/12/31 10:00:03;;;;;;;7.30;3.53;;;7.60;73.80;;;;;;5009547;28;20034;-73
2020/12/31 10:02:29;;;;;;;7.80;3.40;;;7.70;73.40;;;;;;5008432;28;20026;-73
2020/12/31 10:04:55;;;;;;;8.43;4.63;;;7.60;73.40;;;;;;5009815;28;20034;-73
2020/12/31 10:07:20;;;;;;;8.15;4.38;;;7.60;73.60;;;;;;5008718;28;20121;-73
2020/12/31 10:09:46;;;;;;;7.20;4.53;;;7.70;73.60;;;;;;5011600;28;20041;-73
2020/12/31 10:12:13;;;;;;;7.43;4.32;;;7.80;73.40;;;;;;5007834;28;20395;-73
2020/12/31 10:14:39;;;;;;;8.23;4.40;;;7.70;73.30;;;;;;4991844;28;20030;-73
2020/12/31 10:17:06;;;;;;;8.38;4.78;;;7.70;73.40;;;;;;5009428;28;20030;-73
2020/12/31 10:19:31;;;;;;;9.17;4.83;;;7.80;73.50;;;;;;4994063;28;20041;-72
2020/12/31 10:21:57;;;;;;;7.60;4.35;;;7.90;73.20;;;;;;5010699;28;20465;-72
2020/12/31 10:24:23;;;;;;;8.52;4.05;;;7.80;72.80;;;;;;5011918;28;20543;-72
2020/12/31 10:26:48;;;;;;;9.13;5.55;;;7.90;73.00;;;;;;4997706;28;20041;-72
2020/12/31 10:29:15;;;;;;;7.30;4.32;;;7.80;73.00;;;;;;5009593;28;20049;-72
2020/12/31 10:31:42;;;;;;;7.90;4.60;;;7.80;73.00;;;;;;4975746;28;20041;-73
2020/12/31 10:34:10;;;;;;;7.90;4.55;;;7.90;73.10;;;;;;5009768;28;20045;-72
2020/12/31 10:36:37;;;;;;;7.82;5.10;;;8.00;73.00;;;;;;5000853;28;20049;-73
2020/12/31 10:39:04;;;;;;;7.45;4.20;;;8.10;72.70;;;;;;5006424;28;20084;-72
2020/12/31 10:41:30;;;;;;;8.30;4.88;;;8.20;72.40;;;;;;5006036;28;20483;-72
2020/12/31 10:43:58;;;;;;;8.70;4.47;;;8.30;72.00;;;;;;5007367;28;20067;-71
2020/12/31 10:46:25;;;;;;;8.05;5.25;;;8.40;72.00;;;;;;5009024;28;20061;-71
2020/12/31 10:48:51;;;;;;;8.90;4.65;;;8.40;72.20;;;;;;4991417;28;20101;-71
2020/12/31 10:51:16;;;;;;;8.57;4.78;;;8.50;72.20;;;;;;4975305;28;20069;-71
2020/12/31 10:53:42;;;;;;;11.85;7.38;;;8.50;72.00;;;;;;5011537;28;20072;-71
2020/12/31 10:56:08;;;;;;;9.02;5.45;;;8.60;71.80;;;;;;5009620;28;20413;-70
2020/12/31 10:58:40;;;;;;;10.48;6.50;;;8.60;71.60;;;;;;5013040;28;20092;-71
2020/12/31 11:01:05;;;;;;;12.80;7.00;;;8.60;71.70;;;;;;5011551;28;20092;-71
2020/12/31 11:03:31;;;;;;;12.05;6.70;;;8.60;71.60;;;;;;5004432;28;20037;-71
2020/12/31 11:05:57;;;;;;;9.48;5.53;;;8.60;71.30;;;;;;5010603;28;20074;-71
2020/12/31 11:08:23;;;;;;;8.95;5.65;;;8.60;71.40;;;;;;5009026;28;20076;-73
2020/12/31 11:10:49;;;;;;;8.63;5.57;;;8.70;71.30;;;;;;5012283;28;20038;-75
2020/12/31 11:13:15;;;;;;;11.55;5.30;;;8.70;71.10;;;;;;5010925;28;20022;-74
2020/12/31 11:15:41;;;;;;;7.60;5.07;;;8.80;71.30;;;;;;5011418;28;20049;-73
2020/12/31 11:18:07;;;;;;;8.35;4.93;;;8.70;71.20;;;;;;5012415;28;20030;-74
2020/12/31 11:20:33;;;;;;;7.70;5.20;;;8.70;71.70;;;;;;5010995;28;20487;-73
2020/12/31 11:22:59;;;;;;;10.10;4.85;;;8.70;71.60;;;;;;4995787;28;20200;-75
2020/12/31 11:25:25;;;;;;;7.88;5.43;;;8.80;71.00;;;;;;5012005;28;20446;-74
2020/12/31 11:27:50;;;;;;;9.25;5.25;;;8.90;71.10;;;;;;5004290;28;20044;-75
2020/12/31 11:30:16;;;;;;;9.30;5.78;;;9.00;71.20;;;;;;5005501;28;20149;-71
2020/12/31 11:32:42;;;;;;;11.40;5.40;;;9.10;71.00;;;;;;5007965;28;20077;-72
2020/12/31 11:35:07;;;;;;;9.30;6.28;;;9.20;70.40;;;;;;5009204;28;20034;-72
2020/12/31 11:37:34;;;;;;;9.02;6.03;;;9.30;69.20;;;;;;5002534;28;20451;-72
2020/12/31 11:40:00;;;;;;;8.95;5.40;;;9.30;69.50;;;;;;5004272;28;20054;-74
2020/12/31 11:42:35;;;;;;;9.38;5.80;;;9.40;69.80;;;;;;4975336;28;20120;-72
2020/12/31 11:45:05;;;;;;;9.63;6.18;;;9.60;69.90;;;;;;5004176;28;20037;-72
2020/12/31 11:47:31;;;;;;;10.45;6.13;;;9.60;69.00;;;;;;5023743;28;20026;-71
2020/12/31 11:49:57;;;;;;;9.18;5.75;;;9.70;68.30;;;;;;5010561;28;20046;-72
2020/12/31 11:52:23;;;;;;;8.85;5.50;;;9.60;68.40;;;;;;5016300;28;20156;-71
2020/12/31 11:54:48;;;;;;;10.70;6.32;;;9.60;68.40;;;;;;5012414;28;20037;-72
2020/12/31 11:57:15;;;;;;;10.20;6.53;;;9.60;68.60;;;;;;4976188;28;20456;-72
2020/12/31 11:59:41;;;;;;;7.75;4.57;;;9.50;68.50;;;;;;4998362;28;20034;-72
2020/12/31 12:02:08;;;;;;;7.75;4.38;;;9.50;68.80;;;;;;5000279;28;20205;-72
2020/12/31 12:04:35;;;;;;;8.40;5.18;;;9.50;69.20;;;;;;5011983;28;20115;-72
2020/12/31 12:07:00;;;;;;;7.72;4.78;;;9.50;69.00;;;;;;5009807;28;20129;-71
2020/12/31 12:09:26;;;;;;;8.98;5.22;;;9.50;69.10;;;;;;5010061;28;20101;-71
2020/12/31 12:11:51;;;;;;;8.15;5.00;;;9.50;69.30;;;;;;4994143;28;20054;-71
2020/12/31 12:14:17;;;;;;;8.65;4.93;;;9.60;69.40;;;;;;5003893;28;20037;-71
2020/12/31 12:16:50;;;;;;;8.23;4.70;;;9.60;68.70;;;;;;5010514;28;20045;-71
2020/12/31 12:19:16;;;;;;;7.80;4.43;;;9.70;68.70;;;;;;4983102;28;20061;-71
2020/12/31 12:21:42;;;;;;;8.23;5.00;;;9.70;68.80;;;;;;5030587;28;20029;-72
2020/12/31 12:24:08;;;;;;;9.80;5.68;;;9.50;68.00;;;;;;5018378;28;20404;-72
2020/12/31 12:26:38;;;;;;;10.32;5.22;;;9.40;68.20;;;;;;5010319;28;20361;-71
2020/12/31 12:29:05;;;;;;;8.15;4.88;;;9.20;68.60;;;;;;4995979;28;20026;-72
2020/12/31 12:31:32;;;;;;;8.88;5.20;;;9.10;69.20;;;;;;5010651;28;20053;-71
2020/12/31 12:33:58;;;;;;;10.25;4.70;;;9.10;69.30;;;;;;5020695;28;20099;-71
2020/12/31 12:36:24;;;;;;;13.63;5.68;;;9.10;69.50;;;;;;4999242;28;20062;-72
2020/12/31 12:38:50;;;;;;;8.93;4.80;;;9.00;69.60;;;;;;4977910;28;20042;-71
2020/12/31 12:41:15;;;;;;;8.90;5.35;;;9.00;69.80;;;;;;4993407;28;20030;-71
2020/12/31 12:43:41;;;;;;;8.98;5.40;;;9.00;69.40;;;;;;5010164;28;20081;-71
2020/12/31 12:46:07;;;;;;;9.10;5.75;;;9.00;69.20;;;;;;4992396;28;20064;-71
2020/12/31 12:48:32;;;;;;;11.02;5.53;;;8.90;69.40;;;;;;4994035;28;20464;-71
2020/12/31 12:50:58;;;;;;;8.65;4.70;;;9.00;69.70;;;;;;5011491;28;20033;-71
2020/12/31 12:53:23;;;;;;;9.52;5.47;;;9.00;69.70;;;;;;5010238;28;20430;-71
2020/12/31 12:55:49;;;;;;;8.48;5.45;;;9.00;69.60;;;;;;5011064;28;20049;-71
2020/12/31 12:58:14;;;;;;;10.40;5.20;;;9.00;69.80;;;;;;4992005;28;20112;-71
2020/12/31 13:00:40;;;;;;;7.50;4.35;;;9.00;69.90;;;;;;5006116;28;20436;-71